sensor_id;sensor_type;location;lat;lon;timestamp;temperature;humidity
57434;DHT22;43277;52.672;6.984;2023-07-13T00:02:23;15.80;99.90
57434;DHT22;43277;52.672;6.984;2023-07-13T00:04:49;15.80;99.90
57434;DHT22;43277;52.672;6.984;2023-07-13T00:07:16;15.80;99.90
57434;DHT22;43277;52.672;6.984;2023-07-13T00:09:46;15.70;99.90
57434;DHT22;43277;52.672;6.984;2023-07-13T00:12:41;15.80;99.90
57434;DHT22;43277;52.672;6.984;2023-07-13T00:15:16;15.70;99.90
57434;DHT22;43277;52.672;6.984;2023-07-13T00:17:57;15.60;99.90
57434;DHT22;43277;52.672;6.984;2023-07-13T00:20:24;15.70;99.90
57434;DHT22;43277;52.672;6.984;2023-07-13T00:22:51;15.60;99.90
57434;DHT22;43277;52.672;6.984;2023-07-13T00:25:22;15.60;99.90
57434;DHT22;43277;52.672;6.984;2023-07-13T00:27:50;15.50;99.90
57434;DHT22;43277;52.672;6.984;2023-07-13T00:30:16;15.50;99.90
57434;DHT22;43277;52.672;6.984;2023-07-13T00:32:42;15.50;99.90
57434;DHT22;43277;52.672;6.984;2023-07-13T00:35:08;15.50;99.90
57434;DHT22;43277;52.672;6.984;2023-07-13T00:37:33;15.40;99.90
57434;DHT22;43277;52.672;6.984;2023-07-13T00:40:02;15.40;99.90
57434;DHT22;43277;52.672;6.984;2023-07-13T00:42:29;15.40;99.90
57434;DHT22;43277;52.672;6.984;2023-07-13T00:47:46;15.50;99.90
57434;DHT22;43277;52.672;6.984;2023-07-13T00:50:14;15.50;99.90
57434;DHT22;43277;52.672;6.984;2023-07-13T00:52:44;15.50;99.90
57434;DHT22;43277;52.672;6.984;2023-07-13T00:55:12;15.50;99.90
57434;DHT22;43277;52.672;6.984;2023-07-13T00:57:38;15.50;99.90
57434;DHT22;43277;52.672;6.984;2023-07-13T01:00:05;15.40;99.90
57434;DHT22;43277;52.672;6.984;2023-07-13T01:02:41;15.60;99.90
57434;DHT22;43277;52.672;6.984;2023-07-13T01:05:15;15.50;99.90
57434;DHT22;43277;52.672;6.984;2023-07-13T01:07:42;15.60;99.90
57434;DHT22;43277;52.672;6.984;2023-07-13T01:10:10;15.60;99.90
57434;DHT22;43277;52.672;6.984;2023-07-13T01:12:36;15.60;99.90
57434;DHT22;43277;52.672;6.984;2023-07-13T01:15:02;15.70;99.90
57434;DHT22;43277;52.672;6.984;2023-07-13T01:17:30;15.70;99.90
57434;DHT22;43277;52.672;6.984;2023-07-13T01:19:56;15.70;99.90
57434;DHT22;43277;52.672;6.984;2023-07-13T01:22:22;15.90;99.90
57434;DHT22;43277;52.672;6.984;2023-07-13T01:24:53;15.80;99.90
57434;DHT22;43277;52.672;6.984;2023-07-13T01:27:24;15.80;99.90
57434;DHT22;43277;52.672;6.984;2023-07-13T01:29:50;15.80;99.90
57434;DHT22;43277;52.672;6.984;2023-07-13T01:32:21;15.80;99.90
57434;DHT22;43277;52.672;6.984;2023-07-13T01:34:50;15.90;99.90
57434;DHT22;43277;52.672;6.984;2023-07-13T01:37:16;15.90;99.90
57434;DHT22;43277;52.672;6.984;2023-07-13T01:39:42;16.00;99.90
57434;DHT22;43277;52.672;6.984;2023-07-13T01:42:08;16.00;99.90
57434;DHT22;43277;52.672;6.984;2023-07-13T01:44:34;16.00;99.90
57434;DHT22;43277;52.672;6.984;2023-07-13T01:47:01;16.00;99.90
57434;DHT22;43277;52.672;6.984;2023-07-13T01:49:26;16.00;99.90
57434;DHT22;43277;52.672;6.984;2023-07-13T01:51:52;16.00;99.90
57434;DHT22;43277;52.672;6.984;2023-07-13T01:54:18;16.00;99.90
57434;DHT22;43277;52.672;6.984;2023-07-13T01:56:43;16.00;99.90
57434;DHT22;43277;52.672;6.984;2023-07-13T01:59:09;16.10;99.90
57434;DHT22;43277;52.672;6.984;2023-07-13T02:01:35;16.10;99.90
57434;DHT22;43277;52.672;6.984;2023-07-13T02:04:01;16.10;99.90
57434;DHT22;43277;52.672;6.984;2023-07-13T02:06:27;16.10;99.90
57434;DHT22;43277;52.672;6.984;2023-07-13T02:08:52;16.10;99.90
57434;DHT22;43277;52.672;6.984;2023-07-13T02:11:21;16.10;99.90
57434;DHT22;43277;52.672;6.984;2023-07-13T02:13:47;16.20;99.90
57434;DHT22;43277;52.672;6.984;2023-07-13T02:16:13;16.20;99.90
57434;DHT22;43277;52.672;6.984;2023-07-13T02:18:38;16.10;99.90
57434;DHT22;43277;52.672;6.984;2023-07-13T02:21:04;16.10;99.90
57434;DHT22;43277;52.672;6.984;2023-07-13T02:23:30;16.20;99.90
57434;DHT22;43277;52.672;6.984;2023-07-13T02:25:57;16.20;99.90
57434;DHT22;43277;52.672;6.984;2023-07-13T02:28:23;16.20;99.90
57434;DHT22;43277;52.672;6.984;2023-07-13T02:30:49;16.20;99.90
57434;DHT22;43277;52.672;6.984;2023-07-13T02:33:14;16.10;99.90
57434;DHT22;43277;52.672;6.984;2023-07-13T02:35:40;16.10;99.90
57434;DHT22;43277;52.672;6.984;2023-07-13T02:38:06;16.10;99.90
57434;DHT22;43277;52.672;6.984;2023-07-13T02:40:32;16.10;99.90
57434;DHT22;43277;52.672;6.984;2023-07-13T02:43:02;16.10;99.90
57434;DHT22;43277;52.672;6.984;2023-07-13T02:45:28;16.10;99.90
57434;DHT22;43277;52.672;6.984;2023-07-13T02:47:54;16.20;99.90
57434;DHT22;43277;52.672;6.984;2023-07-13T02:50:19;16.10;99.90
57434;DHT22;43277;52.672;6.984;2023-07-13T02:52:45;16.10;99.90
57434;DHT22;43277;52.672;6.984;2023-07-13T02:55:11;16.10;99.90
57434;DHT22;43277;52.672;6.984;2023-07-13T02:57:37;16.10;99.90
57434;DHT22;43277;52.672;6.984;2023-07-13T03:00:04;16.10;99.90
57434;DHT22;43277;52.672;6.984;2023-07-13T03:02:31;16.10;99.90
57434;DHT22;43277;52.672;6.984;2023-07-13T03:04:58;16.10;99.90
57434;DHT22;43277;52.672;6.984;2023-07-13T03:07:23;16.10;99.90
57434;DHT22;43277;52.672;6.984;2023-07-13T03:09:57;16.10;99.90
57434;DHT22;43277;52.672;6.984;2023-07-13T03:12:23;16.10;99.90
57434;DHT22;43277;52.672;6.984;2023-07-13T03:14:49;16.10;99.90
57434;DHT22;43277;52.672;6.984;2023-07-13T03:17:15;16.10;99.90
57434;DHT22;43277;52.672;6.984;2023-07-13T03:19:40;16.10;99.90
57434;DHT22;43277;52.672;6.984;2023-07-13T03:22:06;16.10;99.90
57434;DHT22;43277;52.672;6.984;2023-07-13T03:24:33;16.10;99.90
57434;DHT22;43277;52.672;6.984;2023-07-13T03:27:01;16.10;99.90
57434;DHT22;43277;52.672;6.984;2023-07-13T03:29:27;16.10;99.90
57434;DHT22;43277;52.672;6.984;2023-07-13T03:31:53;16.00;99.90
57434;DHT22;43277;52.672;6.984;2023-07-13T03:34:19;16.10;99.90
57434;DHT22;43277;52.672;6.984;2023-07-13T03:36:44;16.10;99.90
57434;DHT22;43277;52.672;6.984;2023-07-13T03:39:10;16.00;99.90
57434;DHT22;43277;52.672;6.984;2023-07-13T03:41:36;16.00;99.90
57434;DHT22;43277;52.672;6.984;2023-07-13T03:44:02;16.10;99.90
57434;DHT22;43277;52.672;6.984;2023-07-13T03:46:28;16.10;99.90
57434;DHT22;43277;52.672;6.984;2023-07-13T03:48:54;16.10;99.90
57434;DHT22;43277;52.672;6.984;2023-07-13T03:51:20;16.00;99.90
57434;DHT22;43277;52.672;6.984;2023-07-13T03:53:47;16.00;99.90
57434;DHT22;43277;52.672;6.984;2023-07-13T03:56:15;16.00;99.90
57434;DHT22;43277;52.672;6.984;2023-07-13T03:58:42;15.90;99.90
57434;DHT22;43277;52.672;6.984;2023-07-13T04:01:10;15.90;99.90
57434;DHT22;43277;52.672;6.984;2023-07-13T04:03:36;16.10;99.90
57434;DHT22;43277;52.672;6.984;2023-07-13T04:06:04;16.00;99.90
57434;DHT22;43277;52.672;6.984;2023-07-13T04:08:32;16.00;99.90
57434;DHT22;43277;52.672;6.984;2023-07-13T04:10:59;15.90;99.90
57434;DHT22;43277;52.672;6.984;2023-07-13T04:13:25;16.00;99.90
57434;DHT22;43277;52.672;6.984;2023-07-13T04:15:52;16.00;99.90
57434;DHT22;43277;52.672;6.984;2023-07-13T04:18:18;15.90;99.90
57434;DHT22;43277;52.672;6.984;2023-07-13T04:20:48;16.00;99.90
57434;DHT22;43277;52.672;6.984;2023-07-13T04:23:15;16.00;99.90
57434;DHT22;43277;52.672;6.984;2023-07-13T04:25:48;15.90;99.90
57434;DHT22;43277;52.672;6.984;2023-07-13T04:28:18;15.90;99.90
57434;DHT22;43277;52.672;6.984;2023-07-13T04:30:44;15.90;99.90
57434;DHT22;43277;52.672;6.984;2023-07-13T04:33:10;16.00;99.90
57434;DHT22;43277;52.672;6.984;2023-07-13T04:35:36;16.00;99.90
57434;DHT22;43277;52.672;6.984;2023-07-13T04:38:03;15.90;99.90
57434;DHT22;43277;52.672;6.984;2023-07-13T04:40:28;15.90;99.90
57434;DHT22;43277;52.672;6.984;2023-07-13T04:42:55;15.80;99.90
57434;DHT22;43277;52.672;6.984;2023-07-13T04:45:21;15.80;99.90
57434;DHT22;43277;52.672;6.984;2023-07-13T04:47:49;15.80;99.90
57434;DHT22;43277;52.672;6.984;2023-07-13T04:50:15;15.80;99.90
57434;DHT22;43277;52.672;6.984;2023-07-13T04:52:45;15.80;99.90
57434;DHT22;43277;52.672;6.984;2023-07-13T04:55:11;15.90;99.90
57434;DHT22;43277;52.672;6.984;2023-07-13T04:57:36;15.80;99.90
57434;DHT22;43277;52.672;6.984;2023-07-13T05:00:03;15.80;99.90
57434;DHT22;43277;52.672;6.984;2023-07-13T05:02:32;15.80;99.90
57434;DHT22;43277;52.672;6.984;2023-07-13T05:04:58;15.80;99.90
57434;DHT22;43277;52.672;6.984;2023-07-13T05:07:25;15.90;99.90
57434;DHT22;43277;52.672;6.984;2023-07-13T05:09:51;15.90;99.90
57434;DHT22;43277;52.672;6.984;2023-07-13T05:12:17;15.80;99.90
57434;DHT22;43277;52.672;6.984;2023-07-13T05:14:43;15.80;99.90
57434;DHT22;43277;52.672;6.984;2023-07-13T05:17:09;15.80;99.90
57434;DHT22;43277;52.672;6.984;2023-07-13T05:19:34;15.80;99.90
57434;DHT22;43277;52.672;6.984;2023-07-13T05:22:00;15.90;99.90
57434;DHT22;43277;52.672;6.984;2023-07-13T05:24:26;15.90;99.90
57434;DHT22;43277;52.672;6.984;2023-07-13T05:26:52;15.90;99.90
57434;DHT22;43277;52.672;6.984;2023-07-13T05:29:19;16.00;99.90
57434;DHT22;43277;52.672;6.984;2023-07-13T05:31:44;16.00;99.90
57434;DHT22;43277;52.672;6.984;2023-07-13T05:34:10;16.10;99.90
57434;DHT22;43277;52.672;6.984;2023-07-13T05:36:36;16.20;99.90
57434;DHT22;43277;52.672;6.984;2023-07-13T05:39:03;16.30;99.90
57434;DHT22;43277;52.672;6.984;2023-07-13T05:41:29;16.40;99.90
57434;DHT22;43277;52.672;6.984;2023-07-13T05:43:54;16.30;99.90
57434;DHT22;43277;52.672;6.984;2023-07-13T05:46:20;16.30;99.90
57434;DHT22;43277;52.672;6.984;2023-07-13T05:48:46;16.40;99.90
57434;DHT22;43277;52.672;6.984;2023-07-13T05:51:12;16.40;99.90
57434;DHT22;43277;52.672;6.984;2023-07-13T05:53:38;16.50;99.90
57434;DHT22;43277;52.672;6.984;2023-07-13T05:56:04;16.60;99.90
57434;DHT22;43277;52.672;6.984;2023-07-13T05:58:30;16.60;99.90
57434;DHT22;43277;52.672;6.984;2023-07-13T06:01:06;16.70;99.90
57434;DHT22;43277;52.672;6.984;2023-07-13T06:03:33;16.70;99.90
57434;DHT22;43277;52.672;6.984;2023-07-13T06:05:59;16.70;99.90
57434;DHT22;43277;52.672;6.984;2023-07-13T06:08:28;16.80;99.90
57434;DHT22;43277;52.672;6.984;2023-07-13T06:10:54;16.80;99.90
57434;DHT22;43277;52.672;6.984;2023-07-13T06:13:20;16.90;99.90
57434;DHT22;43277;52.672;6.984;2023-07-13T06:15:49;17.10;99.90
57434;DHT22;43277;52.672;6.984;2023-07-13T06:18:15;17.10;99.90
57434;DHT22;43277;52.672;6.984;2023-07-13T06:20:41;17.20;99.90
57434;DHT22;43277;52.672;6.984;2023-07-13T06:23:06;17.20;99.90
57434;DHT22;43277;52.672;6.984;2023-07-13T06:25:32;17.30;99.90
57434;DHT22;43277;52.672;6.984;2023-07-13T06:27:58;17.40;99.90
57434;DHT22;43277;52.672;6.984;2023-07-13T06:30:23;17.40;99.90
57434;DHT22;43277;52.672;6.984;2023-07-13T06:32:49;17.50;99.90
57434;DHT22;43277;52.672;6.984;2023-07-13T06:35:15;17.60;99.90
57434;DHT22;43277;52.672;6.984;2023-07-13T06:37:41;17.70;99.90
57434;DHT22;43277;52.672;6.984;2023-07-13T06:40:07;17.80;99.90
57434;DHT22;43277;52.672;6.984;2023-07-13T06:42:33;17.80;99.90
57434;DHT22;43277;52.672;6.984;2023-07-13T06:44:59;17.90;99.90
57434;DHT22;43277;52.672;6.984;2023-07-13T06:47:24;17.90;99.90
57434;DHT22;43277;52.672;6.984;2023-07-13T06:49:50;18.10;99.90
57434;DHT22;43277;52.672;6.984;2023-07-13T06:52:16;18.30;99.90
57434;DHT22;43277;52.672;6.984;2023-07-13T06:54:41;18.30;99.90
57434;DHT22;43277;52.672;6.984;2023-07-13T06:57:07;18.30;99.90
57434;DHT22;43277;52.672;6.984;2023-07-13T06:59:33;18.30;99.90
57434;DHT22;43277;52.672;6.984;2023-07-13T07:01:58;18.40;99.90
57434;DHT22;43277;52.672;6.984;2023-07-13T07:04:24;18.50;99.90
57434;DHT22;43277;52.672;6.984;2023-07-13T07:06:50;18.70;99.90
57434;DHT22;43277;52.672;6.984;2023-07-13T07:09:15;18.60;99.90
57434;DHT22;43277;52.672;6.984;2023-07-13T07:11:42;18.70;99.90
57434;DHT22;43277;52.672;6.984;2023-07-13T07:14:08;18.70;99.90
57434;DHT22;43277;52.672;6.984;2023-07-13T07:16:33;18.80;99.90
57434;DHT22;43277;52.672;6.984;2023-07-13T07:18:59;18.90;99.90
57434;DHT22;43277;52.672;6.984;2023-07-13T07:21:25;18.90;99.90
57434;DHT22;43277;52.672;6.984;2023-07-13T07:23:52;19.10;99.90
57434;DHT22;43277;52.672;6.984;2023-07-13T07:26:18;19.10;99.90
57434;DHT22;43277;52.672;6.984;2023-07-13T07:28:43;19.30;99.90
57434;DHT22;43277;52.672;6.984;2023-07-13T07:31:10;19.40;99.90
57434;DHT22;43277;52.672;6.984;2023-07-13T07:33:35;19.40;99.90
57434;DHT22;43277;52.672;6.984;2023-07-13T07:36:01;19.50;99.90
57434;DHT22;43277;52.672;6.984;2023-07-13T07:38:27;19.60;99.90
57434;DHT22;43277;52.672;6.984;2023-07-13T07:40:53;19.80;99.90
57434;DHT22;43277;52.672;6.984;2023-07-13T07:43:19;20.00;99.90
57434;DHT22;43277;52.672;6.984;2023-07-13T07:45:45;20.20;99.90
57434;DHT22;43277;52.672;6.984;2023-07-13T07:48:11;20.20;99.90
57434;DHT22;43277;52.672;6.984;2023-07-13T07:50:37;20.10;99.90
57434;DHT22;43277;52.672;6.984;2023-07-13T07:53:06;20.00;99.90
57434;DHT22;43277;52.672;6.984;2023-07-13T07:55:36;20.00;99.90
57434;DHT22;43277;52.672;6.984;2023-07-13T07:58:02;19.90;99.90
57434;DHT22;43277;52.672;6.984;2023-07-13T08:00:27;20.00;99.90
57434;DHT22;43277;52.672;6.984;2023-07-13T08:02:57;20.00;99.90
57434;DHT22;43277;52.672;6.984;2023-07-13T08:05:23;19.90;99.90
57434;DHT22;43277;52.672;6.984;2023-07-13T08:07:49;20.00;99.90
57434;DHT22;43277;52.672;6.984;2023-07-13T08:10:16;20.00;99.90
57434;DHT22;43277;52.672;6.984;2023-07-13T08:12:41;20.10;99.90
57434;DHT22;43277;52.672;6.984;2023-07-13T08:15:10;20.20;99.90
57434;DHT22;43277;52.672;6.984;2023-07-13T08:17:36;20.40;99.90
57434;DHT22;43277;52.672;6.984;2023-07-13T08:20:02;20.50;99.90
57434;DHT22;43277;52.672;6.984;2023-07-13T08:22:28;20.60;99.90
57434;DHT22;43277;52.672;6.984;2023-07-13T08:24:53;20.70;99.90
57434;DHT22;43277;52.672;6.984;2023-07-13T08:27:24;20.60;99.90
57434;DHT22;43277;52.672;6.984;2023-07-13T08:29:50;20.60;99.90
57434;DHT22;43277;52.672;6.984;2023-07-13T08:32:16;20.60;99.90
57434;DHT22;43277;52.672;6.984;2023-07-13T08:34:43;20.60;99.90
57434;DHT22;43277;52.672;6.984;2023-07-13T08:37:09;20.60;99.90
57434;DHT22;43277;52.672;6.984;2023-07-13T08:39:35;20.60;99.90
57434;DHT22;43277;52.672;6.984;2023-07-13T08:42:31;20.50;99.90
57434;DHT22;43277;52.672;6.984;2023-07-13T08:47:57;20.60;99.90
57434;DHT22;43277;52.672;6.984;2023-07-13T08:50:30;20.80;99.90
57434;DHT22;43277;52.672;6.984;2023-07-13T08:52:58;21.00;99.90
57434;DHT22;43277;52.672;6.984;2023-07-13T08:55:28;20.90;99.90
57434;DHT22;43277;52.672;6.984;2023-07-13T08:58:02;20.90;99.90
57434;DHT22;43277;52.672;6.984;2023-07-13T09:00:38;20.90;99.90
57434;DHT22;43277;52.672;6.984;2023-07-13T09:03:16;21.10;99.90
57434;DHT22;43277;52.672;6.984;2023-07-13T09:05:50;21.20;99.90
57434;DHT22;43277;52.672;6.984;2023-07-13T09:16:25;21.40;99.30
57434;DHT22;43277;52.672;6.984;2023-07-13T09:18:54;21.50;99.90
57434;DHT22;43277;52.672;6.984;2023-07-13T09:21:34;21.60;99.90
57434;DHT22;43277;52.672;6.984;2023-07-13T09:24:29;21.70;99.90
57434;DHT22;43277;52.672;6.984;2023-07-13T09:26:57;21.90;99.90
57434;DHT22;43277;52.672;6.984;2023-07-13T09:29:29;22.00;99.90
57434;DHT22;43277;52.672;6.984;2023-07-13T09:32:02;22.20;99.90
57434;DHT22;43277;52.672;6.984;2023-07-13T09:34:29;22.30;99.90
57434;DHT22;43277;52.672;6.984;2023-07-13T09:36:56;22.20;99.90
57434;DHT22;43277;52.672;6.984;2023-07-13T09:39:33;22.10;99.50
57434;DHT22;43277;52.672;6.984;2023-07-13T09:44:49;21.60;99.40
57434;DHT22;43277;52.672;6.984;2023-07-13T09:47:18;21.40;99.90
57434;DHT22;43277;52.672;6.984;2023-07-13T09:49:44;20.90;99.90
57434;DHT22;43277;52.672;6.984;2023-07-13T09:52:15;20.30;99.90
57434;DHT22;43277;52.672;6.984;2023-07-13T09:54:45;19.50;99.90
57434;DHT22;43277;52.672;6.984;2023-07-13T09:57:19;18.80;99.90
57434;DHT22;43277;52.672;6.984;2023-07-13T09:59:47;18.40;99.90
57434;DHT22;43277;52.672;6.984;2023-07-13T10:02:33;18.00;99.90
57434;DHT22;43277;52.672;6.984;2023-07-13T10:05:03;17.70;99.90
57434;DHT22;43277;52.672;6.984;2023-07-13T10:07:30;17.40;99.90
57434;DHT22;43277;52.672;6.984;2023-07-13T10:09:58;17.20;99.90
57434;DHT22;43277;52.672;6.984;2023-07-13T10:12:27;17.10;99.90
57434;DHT22;43277;52.672;6.984;2023-07-13T10:14:59;17.00;99.90
57434;DHT22;43277;52.672;6.984;2023-07-13T10:17:30;17.10;99.90
57434;DHT22;43277;52.672;6.984;2023-07-13T10:20:00;17.10;99.90
57434;DHT22;43277;52.672;6.984;2023-07-13T10:25:35;17.20;99.90
57434;DHT22;43277;52.672;6.984;2023-07-13T10:30:46;17.70;99.90
57434;DHT22;43277;52.672;6.984;2023-07-13T10:33:13;17.80;99.90
57434;DHT22;43277;52.672;6.984;2023-07-13T10:35:42;18.00;99.90
57434;DHT22;43277;52.672;6.984;2023-07-13T10:38:14;18.30;99.90
57434;DHT22;43277;52.672;6.984;2023-07-13T10:43:25;18.80;99.90
57434;DHT22;43277;52.672;6.984;2023-07-13T10:45:53;19.20;99.90
57434;DHT22;43277;52.672;6.984;2023-07-13T10:48:21;19.50;99.90
57434;DHT22;43277;52.672;6.984;2023-07-13T10:50:51;19.70;99.90
57434;DHT22;43277;52.672;6.984;2023-07-13T10:53:32;19.80;99.90
57434;DHT22;43277;52.672;6.984;2023-07-13T10:56:18;20.00;99.90
57434;DHT22;43277;52.672;6.984;2023-07-13T10:58:45;20.00;99.90
57434;DHT22;43277;52.672;6.984;2023-07-13T11:01:16;20.00;99.90
57434;DHT22;43277;52.672;6.984;2023-07-13T11:03:54;19.90;99.90
57434;DHT22;43277;52.672;6.984;2023-07-13T11:06:33;19.80;99.90
57434;DHT22;43277;52.672;6.984;2023-07-13T11:09:25;19.70;99.90
57434;DHT22;43277;52.672;6.984;2023-07-13T11:11:56;19.60;99.90
57434;DHT22;43277;52.672;6.984;2023-07-13T11:14:36;19.60;99.90
57434;DHT22;43277;52.672;6.984;2023-07-13T11:22:44;19.50;99.90
57434;DHT22;43277;52.672;6.984;2023-07-13T11:25:27;19.50;99.90
57434;DHT22;43277;52.672;6.984;2023-07-13T11:30:39;19.30;99.90
57434;DHT22;43277;52.672;6.984;2023-07-13T11:36:04;19.20;99.90
57434;DHT22;43277;52.672;6.984;2023-07-13T11:38:38;19.00;99.90
57434;DHT22;43277;52.672;6.984;2023-07-13T11:41:19;18.80;99.90
57434;DHT22;43277;52.672;6.984;2023-07-13T11:43:48;18.70;99.90
57434;DHT22;43277;52.672;6.984;2023-07-13T11:46:22;18.60;99.90
57434;DHT22;43277;52.672;6.984;2023-07-13T11:48:49;18.50;99.90
57434;DHT22;43277;52.672;6.984;2023-07-13T11:51:20;18.50;99.90
57434;DHT22;43277;52.672;6.984;2023-07-13T11:53:47;18.50;99.90
57434;DHT22;43277;52.672;6.984;2023-07-13T11:56:14;18.50;99.90
57434;DHT22;43277;52.672;6.984;2023-07-13T11:58:40;18.60;99.90
57434;DHT22;43277;52.672;6.984;2023-07-13T12:01:15;18.70;99.90
57434;DHT22;43277;52.672;6.984;2023-07-13T12:03:42;18.90;99.90
57434;DHT22;43277;52.672;6.984;2023-07-13T12:06:33;19.10;99.90
57434;DHT22;43277;52.672;6.984;2023-07-13T12:09:03;19.50;99.90
57434;DHT22;43277;52.672;6.984;2023-07-13T12:11:40;19.80;99.90
57434;DHT22;43277;52.672;6.984;2023-07-13T12:14:15;20.20;99.90
57434;DHT22;43277;52.672;6.984;2023-07-13T12:16:41;20.50;99.90
57434;DHT22;43277;52.672;6.984;2023-07-13T12:19:21;20.70;99.90
57434;DHT22;43277;52.672;6.984;2023-07-13T12:21:47;20.90;99.90
57434;DHT22;43277;52.672;6.984;2023-07-13T12:24:19;21.00;99.90
57434;DHT22;43277;52.672;6.984;2023-07-13T12:26:51;21.20;99.90
57434;DHT22;43277;52.672;6.984;2023-07-13T12:29:17;21.40;99.90
57434;DHT22;43277;52.672;6.984;2023-07-13T12:31:46;21.60;99.90
57434;DHT22;43277;52.672;6.984;2023-07-13T12:34:16;22.00;99.90
57434;DHT22;43277;52.672;6.984;2023-07-13T12:37:00;22.50;99.90
57434;DHT22;43277;52.672;6.984;2023-07-13T12:39:35;22.50;99.90
57434;DHT22;43277;52.672;6.984;2023-07-13T12:42:33;22.50;99.90
57434;DHT22;43277;52.672;6.984;2023-07-13T12:47:30;22.40;99.90
57434;DHT22;43277;52.672;6.984;2023-07-13T12:50:04;22.40;99.90
57434;DHT22;43277;52.672;6.984;2023-07-13T12:52:33;22.50;99.90
57434;DHT22;43277;52.672;6.984;2023-07-13T12:55:06;22.40;99.90
57434;DHT22;43277;52.672;6.984;2023-07-13T12:57:40;22.30;99.90
57434;DHT22;43277;52.672;6.984;2023-07-13T13:00:13;22.30;99.90
57434;DHT22;43277;52.672;6.984;2023-07-13T13:02:45;22.30;99.90
57434;DHT22;43277;52.672;6.984;2023-07-13T13:05:13;22.50;99.90
57434;DHT22;43277;52.672;6.984;2023-07-13T13:07:39;22.60;99.90
57434;DHT22;43277;52.672;6.984;2023-07-13T13:10:12;22.80;99.90
57434;DHT22;43277;52.672;6.984;2023-07-13T13:12:39;23.10;99.60
57434;DHT22;43277;52.672;6.984;2023-07-13T13:15:08;23.20;99.30
57434;DHT22;43277;52.672;6.984;2023-07-13T13:17:34;23.40;99.60
57434;DHT22;43277;52.672;6.984;2023-07-13T13:20:01;23.50;99.20
57434;DHT22;43277;52.672;6.984;2023-07-13T13:22:27;23.60;98.20
57434;DHT22;43277;52.672;6.984;2023-07-13T13:24:52;23.70;98.60
57434;DHT22;43277;52.672;6.984;2023-07-13T13:27:20;23.80;98.60
57434;DHT22;43277;52.672;6.984;2023-07-13T13:29:49;24.00;96.80
57434;DHT22;43277;52.672;6.984;2023-07-13T13:32:17;24.10;96.90
57434;DHT22;43277;52.672;6.984;2023-07-13T13:34:44;24.20;97.00
57434;DHT22;43277;52.672;6.984;2023-07-13T13:37:23;24.10;95.70
57434;DHT22;43277;52.672;6.984;2023-07-13T13:39:51;24.10;96.70
57434;DHT22;43277;52.672;6.984;2023-07-13T13:42:19;23.90;96.30
57434;DHT22;43277;52.672;6.984;2023-07-13T13:44:46;23.60;97.80
57434;DHT22;43277;52.672;6.984;2023-07-13T13:47:29;23.40;99.40
57434;DHT22;43277;52.672;6.984;2023-07-13T13:49:56;23.30;97.00
57434;DHT22;43277;52.672;6.984;2023-07-13T13:52:21;23.50;96.90
57434;DHT22;43277;52.672;6.984;2023-07-13T13:54:47;24.00;94.90
57434;DHT22;43277;52.672;6.984;2023-07-13T13:57:14;24.50;94.20
57434;DHT22;43277;52.672;6.984;2023-07-13T13:59:39;25.00;94.00
57434;DHT22;43277;52.672;6.984;2023-07-13T14:02:27;25.40;88.70
57434;DHT22;43277;52.672;6.984;2023-07-13T14:05:01;25.60;79.80
57434;DHT22;43277;52.672;6.984;2023-07-13T14:07:28;25.60;80.80
57434;DHT22;43277;52.672;6.984;2023-07-13T14:09:57;25.50;81.60
57434;DHT22;43277;52.672;6.984;2023-07-13T14:12:23;25.60;82.80
57434;DHT22;43277;52.672;6.984;2023-07-13T14:14:52;25.70;85.00
57434;DHT22;43277;52.672;6.984;2023-07-13T14:17:23;25.90;82.80
57434;DHT22;43277;52.672;6.984;2023-07-13T14:19:50;25.90;84.30
57434;DHT22;43277;52.672;6.984;2023-07-13T14:22:20;25.70;85.40
57434;DHT22;43277;52.672;6.984;2023-07-13T14:24:46;25.60;90.80
57434;DHT22;43277;52.672;6.984;2023-07-13T14:27:12;25.80;90.50
57434;DHT22;43277;52.672;6.984;2023-07-13T14:29:38;26.10;92.00
57434;DHT22;43277;52.672;6.984;2023-07-13T14:32:08;26.10;87.90
57434;DHT22;43277;52.672;6.984;2023-07-13T14:34:35;25.70;85.10
57434;DHT22;43277;52.672;6.984;2023-07-13T14:37:00;25.60;85.40
57434;DHT22;43277;52.672;6.984;2023-07-13T14:39:26;25.60;86.40
57434;DHT22;43277;52.672;6.984;2023-07-13T14:41:55;25.80;84.50
57434;DHT22;43277;52.672;6.984;2023-07-13T14:44:25;26.00;88.60
57434;DHT22;43277;52.672;6.984;2023-07-13T14:46:51;26.10;82.60
57434;DHT22;43277;52.672;6.984;2023-07-13T14:49:33;26.20;82.10
57434;DHT22;43277;52.672;6.984;2023-07-13T14:52:10;26.30;82.70
57434;DHT22;43277;52.672;6.984;2023-07-13T14:54:36;26.30;79.20
57434;DHT22;43277;52.672;6.984;2023-07-13T14:57:18;26.30;78.60
57434;DHT22;43277;52.672;6.984;2023-07-13T14:59:46;26.30;76.90
57434;DHT22;43277;52.672;6.984;2023-07-13T15:02:17;26.10;80.10
57434;DHT22;43277;52.672;6.984;2023-07-13T15:04:43;26.10;79.50
57434;DHT22;43277;52.672;6.984;2023-07-13T15:07:10;26.30;81.00
57434;DHT22;43277;52.672;6.984;2023-07-13T15:09:36;26.30;81.50
57434;DHT22;43277;52.672;6.984;2023-07-13T15:12:02;26.10;82.20
57434;DHT22;43277;52.672;6.984;2023-07-13T15:14:28;25.90;81.50
57434;DHT22;43277;52.672;6.984;2023-07-13T15:16:55;26.00;80.10
57434;DHT22;43277;52.672;6.984;2023-07-13T15:19:21;26.10;79.90
57434;DHT22;43277;52.672;6.984;2023-07-13T15:21:49;26.00;81.20
57434;DHT22;43277;52.672;6.984;2023-07-13T15:24:15;25.90;83.90
57434;DHT22;43277;52.672;6.984;2023-07-13T15:26:42;25.90;87.90
57434;DHT22;43277;52.672;6.984;2023-07-13T15:29:16;26.00;88.10
57434;DHT22;43277;52.672;6.984;2023-07-13T15:31:42;26.30;88.20
57434;DHT22;43277;52.672;6.984;2023-07-13T15:34:14;26.60;88.70
57434;DHT22;43277;52.672;6.984;2023-07-13T15:36:40;26.60;82.70
57434;DHT22;43277;52.672;6.984;2023-07-13T15:39:07;26.30;79.20
57434;DHT22;43277;52.672;6.984;2023-07-13T15:41:33;26.00;79.80
57434;DHT22;43277;52.672;6.984;2023-07-13T15:44:31;26.10;79.40
57434;DHT22;43277;52.672;6.984;2023-07-13T15:46:57;26.10;78.20
57434;DHT22;43277;52.672;6.984;2023-07-13T15:49:25;26.20;83.90
57434;DHT22;43277;52.672;6.984;2023-07-13T15:51:51;26.40;80.30
57434;DHT22;43277;52.672;6.984;2023-07-13T15:54:19;26.70;81.10
57434;DHT22;43277;52.672;6.984;2023-07-13T15:56:51;26.80;76.80
57434;DHT22;43277;52.672;6.984;2023-07-13T15:59:17;26.70;79.20
57434;DHT22;43277;52.672;6.984;2023-07-13T16:01:45;26.60;77.30
57434;DHT22;43277;52.672;6.984;2023-07-13T16:04:13;26.50;79.90
57434;DHT22;43277;52.672;6.984;2023-07-13T16:06:40;26.60;83.50
57434;DHT22;43277;52.672;6.984;2023-07-13T16:09:07;27.30;80.50
57434;DHT22;43277;52.672;6.984;2023-07-13T16:11:36;28.00;79.70
57434;DHT22;43277;52.672;6.984;2023-07-13T16:14:03;27.80;81.10
57434;DHT22;43277;52.672;6.984;2023-07-13T16:16:31;27.30;81.70
57434;DHT22;43277;52.672;6.984;2023-07-13T16:19:03;26.90;82.00